createdAt,value
2022-11-13T00:02:08.545Z,41.50
2022-11-13T00:04:54.577Z,37.23
2022-11-13T00:07:40.241Z,43.80
2022-11-13T00:10:26.389Z,41.23
2022-11-13T00:13:12.475Z,38.30
2022-11-13T00:16:00.770Z,40.27
2022-11-13T00:18:48.177Z,42.83
2022-11-13T00:21:33.773Z,43.80
2022-11-13T00:24:19.737Z,41.87
2022-11-13T00:27:05.732Z,41.23
2022-11-13T00:29:51.836Z,38.30
2022-11-13T00:32:38.079Z,41.70
2022-11-13T00:35:23.539Z,42.57
2022-11-13T00:38:09.239Z,37.40
2022-11-13T00:40:55.346Z,37.70
2022-11-13T00:43:41.833Z,40.47
2022-11-13T00:46:27.525Z,41.23
2022-11-13T00:49:13.609Z,36.90
2022-11-13T00:52:00.374Z,39.73
2022-11-13T00:54:46.008Z,36.30
2022-11-13T00:57:32.132Z,35.77
2022-11-13T01:00:18.213Z,37.30
2022-11-13T01:03:04.363Z,34.90
2022-11-13T01:05:50.297Z,36.87
2022-11-13T01:08:36.197Z,35.80
2022-11-13T01:11:25.358Z,37.10
2022-11-13T01:14:11.296Z,42.87
2022-11-13T01:16:57.097Z,41.57
2022-11-13T01:19:43.191Z,40.27
2022-11-13T01:22:29.072Z,39.93
2022-11-13T01:25:14.992Z,45.20
2022-11-13T01:28:01.793Z,51.13
2022-11-13T01:30:47.448Z,50.13
2022-11-13T01:33:33.487Z,49.77
2022-11-13T01:36:26.437Z,52.07
2022-11-13T01:39:13.366Z,62.63
2022-11-13T01:41:59.257Z,69.60
2022-11-13T01:44:49.880Z,72.07
2022-11-13T01:47:36.518Z,90.07
2022-11-13T01:50:22.523Z,83.63
2022-11-13T01:53:09.166Z,126.13
2022-11-13T01:55:55.011Z,114.47
2022-11-13T01:58:46.863Z,141.07
2022-11-13T02:01:32.819Z,188.23
2022-11-13T02:04:18.645Z,132.80
2022-11-13T02:07:25.318Z,142.50
2022-11-13T02:10:11.550Z,162.20
2022-11-13T02:12:58.253Z,139.53
2022-11-13T02:15:45.090Z,162.00
2022-11-13T02:18:31.987Z,140.43
2022-11-13T02:21:44.754Z,180.60
2022-11-13T02:24:36.808Z,95.00
2022-11-13T02:27:31.296Z,135.67
2022-11-13T02:30:25.407Z,111.50
2022-11-13T02:33:28.666Z,184.43
2022-11-13T02:36:16.203Z,169.97
2022-11-13T02:39:06.914Z,108.40
2022-11-13T02:41:53.283Z,153.47
2022-11-13T02:44:39.310Z,175.60
2022-11-13T02:47:25.417Z,121.87
2022-11-13T02:50:11.959Z,110.47
2022-11-13T02:52:58.405Z,217.00
2022-11-13T02:55:44.088Z,89.70
2022-11-13T02:58:30.829Z,123.13
2022-11-13T03:01:17.029Z,187.13
2022-11-13T03:04:02.871Z,147.13
2022-11-13T03:06:48.924Z,95.53
2022-11-13T03:09:35.052Z,91.37
2022-11-13T03:12:20.844Z,149.63
2022-11-13T03:15:09.255Z,215.10
2022-11-13T03:17:55.324Z,119.27
2022-11-13T03:20:43.620Z,169.33
2022-11-13T03:23:29.557Z,103.70
2022-11-13T03:26:17.058Z,265.57
2022-11-13T03:29:03.145Z,128.63
2022-11-13T03:31:48.850Z,217.13
2022-11-13T03:34:35.138Z,101.70
2022-11-13T03:37:21.232Z,237.90
2022-11-13T03:40:08.207Z,186.33
2022-11-13T03:42:54.224Z,365.80
2022-11-13T03:45:40.083Z,152.47
2022-11-13T03:48:26.645Z,200.73
2022-11-13T03:51:12.882Z,247.77
2022-11-13T03:54:00.361Z,220.73
2022-11-13T03:57:04.186Z,402.77
2022-11-13T03:59:51.784Z,237.43
2022-11-13T04:02:37.485Z,233.60
2022-11-13T04:05:23.800Z,196.20
2022-11-13T04:08:10.397Z,182.77
2022-11-13T04:11:05.396Z,258.37
2022-11-13T04:13:51.339Z,179.23
2022-11-13T04:16:37.358Z,196.93
2022-11-13T04:19:23.064Z,208.97
2022-11-13T04:22:09.843Z,282.30
2022-11-13T04:24:55.488Z,305.90
2022-11-13T04:27:40.990Z,266.83
2022-11-13T04:30:26.690Z,138.87
2022-11-13T04:33:12.652Z,232.50
2022-11-13T04:35:58.681Z,348.43
2022-11-13T04:38:44.295Z,214.03
2022-11-13T04:41:54.052Z,154.27
2022-11-13T04:44:41.079Z,187.23
2022-11-13T04:47:27.414Z,203.37
2022-11-13T04:50:14.582Z,196.43
2022-11-13T04:53:00.223Z,347.57
2022-11-13T04:55:46.234Z,374.30
2022-11-13T04:58:31.896Z,113.73
2022-11-13T05:01:18.202Z,310.70
2022-11-13T05:04:03.754Z,177.17
2022-11-13T05:06:49.810Z,294.27
2022-11-13T05:09:35.477Z,159.93
2022-11-13T05:12:21.698Z,150.07
2022-11-13T05:15:08.290Z,268.27
2022-11-13T05:17:54.571Z,199.07
2022-11-13T05:20:40.348Z,211.83
2022-11-13T05:23:26.825Z,256.13
2022-11-13T05:26:14.499Z,203.67
2022-11-13T05:29:01.112Z,312.97
2022-11-13T05:31:47.465Z,236.27
2022-11-13T05:34:33.129Z,221.83
2022-11-13T05:37:19.039Z,225.77
2022-11-13T05:40:05.701Z,189.27
2022-11-13T05:42:53.967Z,341.37
2022-11-13T05:45:39.677Z,186.67
2022-11-13T05:48:25.633Z,251.40
2022-11-13T05:51:13.698Z,231.23
2022-11-13T05:54:00.734Z,131.87
2022-11-13T05:56:46.366Z,183.37
2022-11-13T05:59:32.415Z,193.77
2022-11-13T06:02:18.381Z,304.10
2022-11-13T06:05:04.643Z,165.90
2022-11-13T06:07:50.395Z,200.63
2022-11-13T06:10:36.272Z,171.27
2022-11-13T06:13:22.279Z,504.20
2022-11-13T06:16:14.291Z,168.73
2022-11-13T06:19:02.689Z,191.07
2022-11-13T06:21:48.700Z,190.97
2022-11-13T06:24:34.470Z,142.27
2022-11-13T06:27:20.114Z,159.43
2022-11-13T06:30:07.175Z,308.90
2022-11-13T06:32:56.449Z,157.83
2022-11-13T06:35:42.301Z,250.77
2022-11-13T06:38:34.580Z,251.00
2022-11-13T06:41:23.169Z,120.07
2022-11-13T06:44:10.231Z,160.57
2022-11-13T06:46:56.305Z,258.07
2022-11-13T06:49:42.103Z,275.20
2022-11-13T06:52:27.655Z,157.27
2022-11-13T06:55:13.344Z,137.33
2022-11-13T06:57:59.270Z,143.23
2022-11-13T07:00:45.256Z,167.90
2022-11-13T07:03:31.125Z,131.73
2022-11-13T07:06:20.658Z,195.70
2022-11-13T07:09:06.453Z,187.40
2022-11-13T07:11:51.858Z,129.50
2022-11-13T07:14:38.015Z,150.47
2022-11-13T07:17:24.162Z,211.83
2022-11-13T07:20:10.763Z,171.50
2022-11-13T07:22:58.730Z,235.43
2022-11-13T07:25:44.850Z,122.83
2022-11-13T07:28:31.616Z,120.57
2022-11-13T07:31:18.374Z,156.67
2022-11-13T07:34:04.015Z,108.20
2022-11-13T07:36:49.880Z,113.87
2022-11-13T07:39:35.726Z,126.37
2022-11-13T07:42:21.637Z,135.00
2022-11-13T07:45:07.766Z,108.40
2022-11-13T07:48:05.122Z,147.77
2022-11-13T07:50:51.497Z,138.50
2022-11-13T07:53:39.193Z,131.07
2022-11-13T07:56:25.599Z,127.37
2022-11-13T07:59:11.400Z,116.10
2022-11-13T08:01:57.467Z,138.73
2022-11-13T08:04:43.311Z,166.83
2022-11-13T08:07:29.135Z,190.00
2022-11-13T08:10:16.159Z,135.77
2022-11-13T08:13:05.084Z,79.70
2022-11-13T08:15:50.853Z,115.27
2022-11-13T08:18:37.091Z,88.13
2022-11-13T08:21:23.140Z,95.20
2022-11-13T08:24:10.528Z,74.70
2022-11-13T08:26:56.676Z,84.77
2022-11-13T08:29:42.286Z,81.00
2022-11-13T08:32:27.857Z,81.37
2022-11-13T08:35:18.923Z,109.93
2022-11-13T08:38:06.609Z,115.17
2022-11-13T08:40:52.983Z,82.80
2022-11-13T08:43:39.315Z,109.93
2022-11-13T08:46:25.181Z,94.83
2022-11-13T08:49:12.316Z,80.70
2022-11-13T08:51:58.277Z,84.77
2022-11-13T08:54:44.192Z,93.50
2022-11-13T08:57:30.266Z,92.07
2022-11-13T09:00:17.108Z,83.07
2022-11-13T09:03:03.537Z,66.23
2022-11-13T09:05:49.122Z,56.47
2022-11-13T09:08:36.427Z,59.07
2022-11-13T09:11:22.857Z,60.27
2022-11-13T09:14:08.719Z,62.43
2022-11-13T09:16:54.688Z,55.23
2022-11-13T09:19:40.630Z,57.43
2022-11-13T09:22:26.641Z,59.23
2022-11-13T09:25:12.388Z,62.07
2022-11-13T09:28:02.656Z,57.23
2022-11-13T09:30:48.762Z,58.67
2022-11-13T09:33:35.256Z,61.83
2022-11-13T09:36:21.031Z,65.33
2022-11-13T09:39:06.384Z,65.27
2022-11-13T09:42:11.047Z,65.30
2022-11-13T09:45:03.013Z,71.27
2022-11-13T09:47:50.339Z,56.13
2022-11-13T09:50:36.409Z,55.60
2022-11-13T11:27:30.042Z,34.00
2022-11-13T11:30:18.832Z,35.13
2022-11-13T11:33:23.237Z,30.10
2022-11-13T11:36:12.137Z,27.65
2022-11-13T11:39:16.985Z,27.83
2022-11-13T11:42:24.117Z,29.25
2022-11-13T11:45:31.668Z,26.50
2022-11-13T11:48:31.649Z,26.67
2022-11-13T11:51:30.055Z,26.02
2022-11-13T11:54:40.493Z,28.63
2022-11-13T11:57:51.537Z,26.83
2022-11-13T12:00:42.002Z,27.42
2022-11-13T12:04:16.332Z,26.98
2022-11-13T12:07:14.149Z,27.17
2022-11-13T12:10:29.512Z,26.90
2022-11-13T12:13:37.284Z,27.00
2022-11-13T12:16:26.255Z,24.38
2022-11-13T12:19:30.094Z,26.50
2022-11-13T12:22:30.603Z,24.90
2022-11-13T12:25:37.953Z,30.77
2022-11-13T12:28:39.826Z,27.73
2022-11-13T12:31:46.379Z,26.10
2022-11-13T12:34:44.979Z,25.38
2022-11-13T12:38:07.258Z,24.70
2022-11-13T12:41:05.129Z,28.57
2022-11-13T12:44:15.821Z,26.23
2022-11-13T12:47:02.617Z,28.37
2022-11-13T12:50:23.494Z,29.67
2022-11-13T12:53:13.088Z,32.07
2022-11-13T12:56:01.758Z,30.97
2022-11-13T12:59:35.855Z,31.23
2022-11-13T13:02:42.259Z,31.13
2022-11-13T13:05:35.858Z,32.30
2022-11-13T13:08:32.216Z,32.70
2022-11-13T13:11:44.140Z,35.10
2022-11-13T13:14:55.779Z,29.40
2022-11-13T13:17:41.520Z,32.53
2022-11-13T13:20:37.637Z,36.17
2022-11-13T13:23:37.097Z,33.30
2022-11-13T13:26:25.792Z,34.73
2022-11-13T13:29:40.606Z,33.33
2022-11-13T13:32:49.246Z,36.97
2022-11-13T13:35:52.124Z,35.30
2022-11-13T13:38:54.907Z,34.73
2022-11-13T13:42:13.225Z,37.43
2022-11-13T13:45:11.224Z,38.73
2022-11-13T13:47:58.210Z,36.17
2022-11-13T13:50:49.729Z,36.63
2022-11-13T13:53:37.286Z,37.30
2022-11-13T13:56:25.444Z,36.17
2022-11-13T13:59:21.156Z,38.10
2022-11-13T14:02:27.424Z,35.33
2022-11-13T14:05:26.989Z,35.30
2022-11-13T14:08:21.872Z,34.50
2022-11-13T14:11:34.282Z,33.30
2022-11-13T14:14:22.535Z,31.90
2022-11-13T14:17:12.875Z,34.00
2022-11-13T14:20:01.328Z,34.07
2022-11-13T14:22:55.349Z,32.53
2022-11-13T14:25:43.577Z,33.83
2022-11-13T14:28:43.203Z,34.03
2022-11-13T14:31:35.648Z,36.07
2022-11-13T14:34:24.097Z,36.57
2022-11-13T14:37:23.368Z,35.07
2022-11-13T14:40:21.565Z,33.30
2022-11-13T14:43:09.050Z,33.00
2022-11-13T14:46:00.780Z,33.43
2022-11-13T14:48:54.719Z,35.60
2022-11-13T14:51:41.172Z,42.93
2022-11-13T14:55:13.055Z,48.33
2022-11-13T14:57:49.620Z,62.27
2022-11-13T15:00:37.585Z,63.50
2022-11-13T15:03:25.724Z,60.97
2022-11-13T15:06:20.272Z,57.13
2022-11-13T15:09:17.642Z,55.17
2022-11-13T15:12:03.742Z,53.20
2022-11-13T15:14:50.185Z,46.63
2022-11-13T15:17:37.096Z,50.50
2022-11-13T15:20:26.707Z,47.53
2022-11-13T15:23:15.617Z,70.33
2022-11-13T15:26:01.247Z,67.90
2022-11-13T15:28:47.425Z,58.60
2022-11-13T15:31:40.602Z,55.97
2022-11-13T15:34:27.237Z,57.30
2022-11-13T15:37:15.259Z,45.90
2022-11-13T15:40:02.058Z,54.63
2022-11-13T15:42:47.952Z,48.43
2022-11-13T15:45:33.432Z,48.40
2022-11-13T15:48:19.278Z,49.30
2022-11-13T15:51:05.259Z,47.00
2022-11-13T15:54:15.053Z,54.10
2022-11-13T15:57:00.818Z,48.07
2022-11-13T15:59:46.942Z,52.43
2022-11-13T16:02:32.890Z,51.87
2022-11-13T16:05:18.922Z,53.60
2022-11-13T16:08:16.212Z,50.00
2022-11-13T16:11:02.613Z,48.00
2022-11-13T16:13:49.086Z,47.87
2022-11-13T16:16:38.207Z,49.23
2022-11-13T16:19:25.742Z,50.63
2022-11-13T16:22:24.158Z,54.27
2022-11-13T16:25:16.189Z,57.17
2022-11-13T16:28:02.209Z,64.70
2022-11-13T16:30:49.752Z,82.83
2022-11-13T16:33:37.015Z,91.90
2022-11-13T16:36:23.391Z,70.73
2022-11-13T16:39:15.387Z,60.50
2022-11-13T16:42:01.452Z,60.87
2022-11-13T16:44:48.198Z,59.13
2022-11-13T16:47:34.117Z,57.33
2022-11-13T16:50:28.133Z,57.17
2022-11-13T16:53:14.059Z,48.57
2022-11-13T16:56:02.008Z,49.50
2022-11-13T16:58:47.877Z,46.90
2022-11-13T17:01:33.889Z,45.27
2022-11-13T17:04:19.556Z,58.77
2022-11-13T17:07:05.382Z,64.57
2022-11-13T17:10:09.961Z,75.07
2022-11-13T17:12:56.780Z,57.87
2022-11-13T17:15:42.818Z,51.90
2022-11-13T17:18:28.572Z,51.87
2022-11-13T17:21:14.689Z,50.37
2022-11-13T17:24:02.687Z,47.93
2022-11-13T17:26:48.409Z,49.70
2022-11-13T17:29:34.708Z,46.93
2022-11-13T17:32:20.780Z,52.67
2022-11-13T17:35:06.772Z,53.27
2022-11-13T17:37:53.512Z,58.47
2022-11-13T17:40:39.519Z,55.07
2022-11-13T17:43:25.645Z,59.27
2022-11-13T17:46:17.417Z,64.70
2022-11-13T17:49:03.531Z,58.27
2022-11-13T17:51:49.567Z,70.40
2022-11-13T17:54:35.400Z,59.10
2022-11-13T17:57:26.558Z,59.33
2022-11-13T18:00:13.057Z,65.67
2022-11-13T18:02:59.019Z,66.00
2022-11-13T18:05:45.940Z,66.17
2022-11-13T18:08:31.460Z,71.63
2022-11-13T18:11:21.098Z,73.83
2022-11-13T18:14:07.072Z,73.27
2022-11-13T18:16:52.950Z,69.60
2022-11-13T18:19:39.379Z,71.43
2022-11-13T18:22:25.145Z,75.60
2022-11-13T18:25:11.374Z,65.17
2022-11-13T18:27:57.145Z,70.97
2022-11-13T18:30:45.167Z,82.97
2022-11-13T18:33:32.532Z,72.40
2022-11-13T18:36:19.802Z,81.07
2022-11-13T18:39:06.190Z,74.73
2022-11-13T18:41:52.428Z,69.40
2022-11-13T18:44:38.380Z,67.97
2022-11-13T18:47:24.038Z,68.07
2022-11-13T18:50:11.513Z,67.33
2022-11-13T18:52:57.503Z,69.07
2022-11-13T18:55:43.529Z,71.63
2022-11-13T18:58:29.909Z,68.73
2022-11-13T19:01:22.184Z,69.13
2022-11-13T19:04:24.327Z,65.30
2022-11-13T19:07:12.657Z,74.07
2022-11-13T19:09:58.846Z,68.93
2022-11-13T19:12:45.052Z,70.20
2022-11-13T19:15:31.008Z,70.23
2022-11-13T19:18:16.968Z,70.97
2022-11-13T19:21:30.097Z,74.87
2022-11-13T19:24:16.797Z,72.67
2022-11-13T19:27:02.703Z,76.13
2022-11-13T19:29:48.182Z,76.60
2022-11-13T19:32:37.844Z,75.87
2022-11-13T19:35:26.945Z,80.50
2022-11-13T19:38:12.420Z,80.10
2022-11-13T19:40:58.197Z,72.23
2022-11-13T19:43:48.075Z,77.57
2022-11-13T19:46:34.304Z,80.20
2022-11-13T19:49:20.478Z,77.07
2022-11-13T19:52:07.106Z,72.73
2022-11-13T19:54:53.110Z,76.27
2022-11-13T19:57:44.926Z,79.77
2022-11-13T20:00:32.459Z,80.03
2022-11-13T20:03:18.176Z,85.07
2022-11-13T20:06:05.567Z,100.07
2022-11-13T20:08:51.405Z,90.90
2022-11-13T20:11:37.379Z,137.40
2022-11-13T20:14:23.449Z,195.13
2022-11-13T20:17:09.460Z,138.27
2022-11-13T20:19:55.423Z,140.43
2022-11-13T20:22:41.480Z,146.23
2022-11-13T20:25:28.595Z,93.93
2022-11-13T20:28:14.345Z,125.63
2022-11-13T20:31:16.523Z,140.73
2022-11-13T20:34:02.436Z,106.33
2022-11-13T20:36:48.503Z,84.63
2022-11-13T20:39:34.157Z,177.37
2022-11-13T20:42:20.312Z,109.70
2022-11-13T20:45:06.815Z,96.63
2022-11-13T20:47:52.361Z,126.23
2022-11-13T20:50:38.982Z,120.73
2022-11-13T20:53:24.704Z,125.13
2022-11-13T20:56:12.396Z,140.03
2022-11-13T20:58:58.569Z,74.67
2022-11-13T21:01:44.583Z,77.40
2022-11-13T21:04:30.396Z,103.17
2022-11-13T21:07:16.366Z,121.73
2022-11-13T21:10:02.198Z,97.10
2022-11-13T21:12:48.189Z,98.97
2022-11-13T21:15:37.082Z,87.33
2022-11-13T21:18:23.038Z,228.00
2022-11-13T21:21:14.369Z,175.00
2022-11-13T21:24:00.273Z,88.03
2022-11-13T21:26:49.911Z,149.10
2022-11-13T21:29:35.665Z,66.73
2022-11-13T21:32:21.889Z,220.33
2022-11-13T21:35:08.182Z,152.30
2022-11-13T21:37:54.871Z,85.93
2022-11-13T21:40:40.909Z,139.33
2022-11-13T21:43:26.536Z,77.87
2022-11-13T21:46:14.400Z,121.83
2022-11-13T21:49:02.621Z,89.33
2022-11-13T21:51:48.341Z,128.43
2022-11-13T21:54:34.204Z,185.63
2022-11-13T21:57:22.893Z,229.40
2022-11-13T22:00:09.442Z,101.23
2022-11-13T22:02:55.088Z,136.43
2022-11-13T22:05:40.750Z,219.77
2022-11-13T22:08:26.685Z,127.87
2022-11-13T22:11:13.165Z,261.90
2022-11-13T22:14:00.136Z,150.70
2022-11-13T22:16:47.155Z,122.77
2022-11-13T22:19:36.208Z,167.23
2022-11-13T22:22:22.513Z,166.07
2022-11-13T22:25:08.827Z,145.33
2022-11-13T22:27:54.800Z,126.47
2022-11-13T22:30:40.683Z,175.97
2022-11-13T22:33:31.627Z,96.83
2022-11-13T22:36:19.993Z,105.97
2022-11-13T22:39:06.695Z,122.03
2022-11-13T22:41:52.364Z,106.40
2022-11-13T22:44:54.892Z,87.97
2022-11-13T22:47:41.836Z,103.43
2022-11-13T22:50:27.868Z,56.03
2022-11-13T22:53:14.873Z,69.90
2022-11-13T22:56:05.971Z,63.93
2022-11-13T22:58:54.380Z,80.67
2022-11-13T23:01:43.102Z,69.43
2022-11-13T23:04:28.601Z,55.93
2022-11-13T23:07:14.732Z,49.50
2022-11-13T23:10:00.782Z,44.10
2022-11-13T23:12:46.918Z,51.67
2022-11-13T23:15:32.653Z,47.30
2022-11-13T23:18:18.492Z,44.67
2022-11-13T23:21:05.117Z,45.73
2022-11-13T23:23:51.779Z,46.97
2022-11-13T23:26:39.350Z,42.70
2022-11-13T23:29:25.100Z,63.97
2022-11-13T23:32:11.029Z,54.77
2022-11-13T23:34:59.472Z,53.37
2022-11-13T23:37:47.230Z,48.60
2022-11-13T23:40:32.915Z,54.87
2022-11-13T23:43:18.761Z,57.77
2022-11-13T23:46:05.480Z,65.73
2022-11-13T23:48:51.162Z,57.23
2022-11-13T23:51:36.820Z,63.17
2022-11-13T23:54:23.355Z,75.73
2022-11-13T23:57:09.424Z,66.57
2022-11-13T23:59:55.210Z,67.00
